Time;durP1;ratioP1;P1;durP2;ratioP2;P2;SDS_P1;SDS_P2;PMS_P1;PMS_P2;Temp;Humidity;BMP_temperature;BMP_pressure;BME280_temperature;BME280_humidity;BME280_pressure;Samples;Min_cycle;Max_cycle;Signal;HPM_P1;HPM_P2
2022/12/19 00:01:25;;;;;;;50.10;25.60;;;-1.00;99.90;;;;;;5055433;28;20029;-67
2022/12/19 00:03:57;;;;;;;47.97;24.45;;;-1.00;99.90;;;;;;5055397;28;20104;-67
2022/12/19 00:06:23;;;;;;;51.47;26.20;;;-1.10;99.90;;;;;;5055083;28;20029;-67
2022/12/19 00:08:51;;;;;;;51.10;27.10;;;-1.10;99.90;;;;;;5055326;28;20110;-67
2022/12/19 00:11:18;;;;;;;43.35;23.88;;;-1.10;99.90;;;;;;5055085;28;20025;-67
2022/12/19 00:13:45;;;;;;;47.92;26.05;;;-1.10;99.90;;;;;;5054852;28;20040;-67
2022/12/19 00:16:16;;;;;;;47.45;24.48;;;-1.10;99.90;;;;;;5055639;28;20041;-67
2022/12/19 00:18:43;;;;;;;46.70;24.48;;;-1.10;99.90;;;;;;5054867;28;20029;-67
2022/12/19 00:21:10;;;;;;;45.58;23.63;;;-1.10;99.90;;;;;;5055235;28;20033;-66
2022/12/19 00:23:36;;;;;;;45.95;24.50;;;-1.10;99.90;;;;;;5053475;28;20507;-66
2022/12/19 00:26:17;;;;;;;51.40;26.35;;;-1.10;99.90;;;;;;5053951;28;20061;-66
2022/12/19 00:28:45;;;;;;;42.75;23.90;;;-1.10;99.90;;;;;;5054613;28;20432;-66
2022/12/19 00:31:11;;;;;;;53.83;26.05;;;-1.10;99.90;;;;;;5054802;28;20120;-68
2022/12/19 00:33:37;;;;;;;49.13;25.88;;;-1.10;99.90;;;;;;5054224;28;20067;-66
2022/12/19 00:36:06;;;;;;;46.33;24.00;;;-1.10;99.90;;;;;;5054312;28;20052;-68
2022/12/19 00:38:32;;;;;;;49.85;26.08;;;-1.20;99.90;;;;;;5054066;28;20384;-68
2022/12/19 00:41:12;;;;;;;46.50;24.40;;;-1.10;99.90;;;;;;5054937;28;20024;-67
2022/12/19 00:43:38;;;;;;;47.50;23.95;;;-1.20;99.90;;;;;;5053967;28;20029;-67
2022/12/19 00:46:06;;;;;;;50.65;26.88;;;-1.20;99.90;;;;;;5054821;28;20071;-66
2022/12/19 00:48:32;;;;;;;48.60;24.35;;;-1.10;99.90;;;;;;5054168;28;20048;-67
2022/12/19 00:51:03;;;;;;;50.60;24.65;;;-1.20;99.90;;;;;;5054408;28;20017;-67
2022/12/19 00:53:29;;;;;;;48.60;25.13;;;-1.20;99.90;;;;;;5054143;28;20094;-67
2022/12/19 00:55:55;;;;;;;45.67;23.95;;;-1.20;99.90;;;;;;5054073;28;20037;-67
2022/12/19 00:58:21;;;;;;;42.90;23.80;;;-1.20;99.90;;;;;;5054250;28;20419;-66
2022/12/19 01:00:47;;;;;;;49.22;25.70;;;-1.20;99.90;;;;;;5053738;28;20394;-66
2022/12/19 01:03:12;;;;;;;48.58;25.05;;;-1.20;99.90;;;;;;5053979;28;20021;-66
2022/12/19 01:05:38;;;;;;;48.33;25.15;;;-1.20;99.90;;;;;;5052549;28;20481;-67
2022/12/19 01:08:04;;;;;;;48.35;24.02;;;-1.20;99.90;;;;;;5053915;28;20119;-67
2022/12/19 01:10:29;;;;;;;43.92;22.70;;;-1.10;99.90;;;;;;5053783;28;20036;-66
2022/12/19 01:12:55;;;;;;;43.83;22.67;;;-1.10;99.90;;;;;;5053893;28;20033;-66
2022/12/19 01:15:21;;;;;;;40.92;23.00;;;-1.10;99.90;;;;;;5054134;28;20478;-67
2022/12/19 01:17:48;;;;;;;42.15;23.50;;;-1.10;99.90;;;;;;5053442;28;20033;-68
2022/12/19 01:20:16;;;;;;;49.08;22.45;;;-1.10;99.90;;;;;;5053963;28;20033;-67
2022/12/19 01:22:42;;;;;;;42.45;23.48;;;-1.10;99.90;;;;;;5053401;28;20060;-67
2022/12/19 01:25:08;;;;;;;41.83;22.00;;;-1.10;99.90;;;;;;5053863;28;20017;-67
2022/12/19 01:27:34;;;;;;;44.42;23.35;;;-1.10;99.90;;;;;;5053525;28;20031;-67
2022/12/19 01:30:00;;;;;;;40.25;20.48;;;-1.10;99.90;;;;;;5053899;28;20036;-67
2022/12/19 01:32:26;;;;;;;42.53;22.25;;;-1.00;99.90;;;;;;5052119;28;20033;-67
2022/12/19 01:34:51;;;;;;;41.55;21.60;;;-1.00;99.90;;;;;;5051618;28;20075;-67
2022/12/19 01:37:17;;;;;;;41.67;21.70;;;-1.00;99.90;;;;;;5053142;28;20098;-66
2022/12/19 01:39:43;;;;;;;43.90;21.25;;;-1.00;99.90;;;;;;5053214;28;19991;-67
2022/12/19 01:42:17;;;;;;;39.00;20.90;;;-1.00;99.90;;;;;;5053267;28;20586;-66
2022/12/19 01:45:06;;;;;;;36.67;20.63;;;-1.00;99.90;;;;;;5053156;28;20465;-67
2022/12/19 01:47:53;;;;;;;39.60;20.17;;;-1.00;99.90;;;;;;5053080;28;20493;-68
2022/12/19 01:50:45;;;;;;;39.33;20.52;;;-1.00;99.90;;;;;;5052750;28;20064;-67
2022/12/19 01:53:12;;;;;;;;;;;-1.00;99.90;;;;;;5053303;28;20025;-66
2022/12/19 01:55:42;;;;;;;36.22;19.42;;;-0.90;99.90;;;;;;5052495;28;19951;-66
2022/12/19 01:58:09;;;;;;;36.60;19.88;;;-0.90;99.90;;;;;;5053489;28;20036;-67
2022/12/19 02:00:35;;;;;;;38.33;19.25;;;-0.90;99.90;;;;;;5052763;28;20055;-67
2022/12/19 02:03:19;;;;;;;34.22;19.33;;;-0.90;99.90;;;;;;5052834;28;20462;-66
2022/12/19 02:05:45;;;;;;;34.58;19.60;;;-0.90;99.90;;;;;;5052715;28;20045;-65
2022/12/19 02:08:12;;;;;;;34.72;19.48;;;-0.90;99.90;;;;;;5052643;28;20367;-66
2022/12/19 02:10:38;;;;;;;34.60;19.65;;;-0.90;99.90;;;;;;5052611;28;20368;-68
2022/12/19 02:13:04;;;;;;;38.53;20.27;;;-0.90;99.90;;;;;;5052795;28;20116;-65
2022/12/19 02:15:39;;;;;;;39.88;20.42;;;-0.90;99.90;;;;;;5052648;28;20029;-67
2022/12/19 02:18:27;;;;;;;38.42;20.73;;;-0.90;99.90;;;;;;5052625;28;20029;-66
2022/12/19 02:21:20;;;;;;;37.55;20.05;;;-0.90;99.90;;;;;;5051967;28;20070;-67
2022/12/19 02:23:52;;;;;;;37.38;20.42;;;-0.90;99.90;;;;;;5052404;28;20104;-65
2022/12/19 02:26:29;;;;;;;37.83;20.58;;;-0.90;99.90;;;;;;5053047;28;20025;-65
2022/12/19 02:29:02;;;;;;;36.28;19.77;;;-0.90;99.90;;;;;;5052318;28;20108;-67
2022/12/19 02:31:40;;;;;;;36.00;19.38;;;-0.90;99.90;;;;;;5052670;28;20095;-66
2022/12/19 02:34:24;;;;;;;38.47;20.27;;;-0.90;99.90;;;;;;5052365;28;20133;-67
2022/12/19 02:36:55;;;;;;;34.20;18.85;;;-0.90;99.90;;;;;;5051604;28;20076;-67
2022/12/19 02:39:38;;;;;;;36.90;19.75;;;-0.90;99.90;;;;;;5051284;28;20053;-67
2022/12/19 02:42:08;;;;;;;38.25;20.35;;;-0.90;99.90;;;;;;5052313;28;20104;-67
2022/12/19 02:44:43;;;;;;;36.65;19.92;;;-0.90;99.90;;;;;;5051984;28;20021;-67
2022/12/19 02:47:10;;;;;;;38.50;20.60;;;-0.90;99.90;;;;;;5052141;28;20025;-66
2022/12/19 02:49:37;;;;;;;37.28;20.75;;;-0.90;99.90;;;;;;5052069;28;20039;-68
2022/12/19 02:52:19;;;;;;;37.28;19.15;;;-0.90;99.90;;;;;;5052384;28;20028;-66
2022/12/19 02:54:47;;;;;;;36.20;19.98;;;-0.90;99.90;;;;;;5052056;28;20082;-67
2022/12/19 02:57:23;;;;;;;35.75;19.95;;;-0.90;99.90;;;;;;5052391;28;20104;-67
2022/12/19 02:59:52;;;;;;;38.60;20.58;;;-0.90;99.90;;;;;;5052074;28;20033;-67
2022/12/19 03:02:26;;;;;;;38.72;20.65;;;-0.90;99.90;;;;;;5052100;28;20025;-67
2022/12/19 03:05:15;;;;;;;40.15;21.00;;;-0.90;99.90;;;;;;5051974;28;20029;-66
2022/12/19 03:07:52;;;;;;;40.15;20.25;;;-0.90;99.90;;;;;;5051969;28;20064;-68
2022/12/19 03:10:25;;;;;;;37.08;19.67;;;-0.90;99.90;;;;;;5052118;28;20112;-66
2022/12/19 03:13:03;;;;;;;36.88;19.67;;;-1.00;99.90;;;;;;5051848;28;20028;-66
2022/12/19 03:15:31;;;;;;;37.42;19.88;;;-0.90;99.90;;;;;;5051922;28;20068;-66
2022/12/19 03:17:59;;;;;;;37.88;19.52;;;-1.00;99.90;;;;;;5051624;28;20073;-68
2022/12/19 03:20:28;;;;;;;40.13;21.23;;;-0.90;99.90;;;;;;5052055;28;20056;-68
2022/12/19 03:22:54;;;;;;;41.63;21.77;;;-0.90;99.90;;;;;;5051453;28;20424;-68
2022/12/19 03:25:21;;;;;;;40.65;21.10;;;-0.90;99.90;;;;;;5051792;28;20025;-67
2022/12/19 03:27:49;;;;;;;39.30;21.08;;;-0.90;99.90;;;;;;5051620;28;20466;-67
2022/12/19 03:30:15;;;;;;;37.70;21.27;;;-0.90;99.90;;;;;;5051982;28;20083;-68
2022/12/19 03:32:44;;;;;;;40.90;21.85;;;-0.90;99.90;;;;;;5051931;28;20017;-67
2022/12/19 03:35:18;;;;;;;37.15;19.73;;;-0.90;99.90;;;;;;5051916;28;20353;-67
2022/12/19 03:37:45;;;;;;;38.92;21.30;;;-1.00;99.90;;;;;;5051279;28;20052;-68
2022/12/19 03:40:22;;;;;;;40.33;22.00;;;-1.00;99.90;;;;;;5051855;28;20037;-67
2022/12/19 03:43:09;;;;;;;35.85;20.77;;;-1.00;99.90;;;;;;5051381;28;20604;-67
2022/12/19 03:45:46;;;;;;;38.42;20.27;;;-1.00;99.90;;;;;;5051900;28;20021;-67
2022/12/19 03:48:33;;;;;;;40.33;21.33;;;-1.00;99.90;;;;;;5051956;28;20032;-67
2022/12/19 03:51:17;;;;;;;37.15;20.10;;;-0.90;99.90;;;;;;5051493;28;20029;-67
2022/12/19 03:53:59;;;;;;;39.70;20.58;;;-0.90;99.90;;;;;;5051618;28;20029;-67
2022/12/19 03:56:55;;;;;;;38.75;21.38;;;-1.00;99.90;;;;;;5052333;28;20091;-67
2022/12/19 03:59:25;;;;;;;40.97;21.50;;;-0.90;99.90;;;;;;5055507;28;20319;-67
2022/12/19 04:01:52;;;;;;;38.60;19.52;;;-0.90;99.90;;;;;;5054441;28;20024;-67
2022/12/19 04:04:20;;;;;;;37.55;20.40;;;-0.90;99.90;;;;;;5055424;28;20033;-67
2022/12/19 04:06:47;;;;;;;38.40;21.08;;;-0.90;99.90;;;;;;5055000;28;20473;-68
2022/12/19 04:09:14;;;;;;;41.80;21.55;;;-0.90;99.90;;;;;;5055102;28;20040;-67
2022/12/19 04:11:47;;;;;;;42.33;20.67;;;-0.90;99.90;;;;;;5054982;28;20070;-66
2022/12/19 04:14:35;;;;;;;40.78;21.67;;;-0.90;99.90;;;;;;5055140;28;20017;-67
2022/12/19 04:17:09;;;;;;;40.30;20.40;;;-0.90;99.90;;;;;;5054708;28;20257;-67
2022/12/19 04:20:05;;;;;;;43.50;21.45;;;-0.90;99.90;;;;;;5055111;28;20170;-67
2022/12/19 04:22:41;;;;;;;41.08;22.33;;;-0.90;99.90;;;;;;5046219;28;20048;-67
2022/12/19 04:25:11;;;;;;;39.83;22.75;;;-0.90;99.90;;;;;;5054969;28;20029;-68
2022/12/19 04:27:40;;;;;;;42.78;23.25;;;-0.90;99.90;;;;;;5054873;28;20104;-67
2022/12/19 04:30:07;;;;;;;47.95;24.10;;;-0.90;99.90;;;;;;5054616;28;20052;-67
2022/12/19 04:32:35;;;;;;;48.33;24.80;;;-0.90;99.90;;;;;;5054879;28;20040;-67
2022/12/19 04:35:01;;;;;;;50.72;25.98;;;-1.00;99.90;;;;;;5054596;28;20126;-67
2022/12/19 04:37:28;;;;;;;48.42;24.30;;;-1.00;99.90;;;;;;5054622;28;20493;-67
2022/12/19 04:39:54;;;;;;;48.97;25.50;;;-1.00;99.90;;;;;;5054388;28;20087;-67
2022/12/19 04:42:19;;;;;;;45.50;25.55;;;-1.10;99.90;;;;;;5054568;28;20032;-67
2022/12/19 04:44:45;;;;;;;51.10;25.63;;;-1.10;99.90;;;;;;5054338;28;20453;-68
2022/12/19 04:47:11;;;;;;;53.70;27.08;;;-1.20;99.90;;;;;;5054615;28;20029;-67
2022/12/19 04:49:36;;;;;;;50.60;26.20;;;-1.20;99.90;;;;;;5054732;28;20075;-67
2022/12/19 04:52:02;;;;;;;58.50;25.38;;;-1.20;99.90;;;;;;5054241;28;20070;-67
2022/12/19 04:54:28;;;;;;;47.72;25.85;;;-1.20;99.90;;;;;;5054420;28;20021;-67
2022/12/19 04:56:54;;;;;;;50.95;26.88;;;-1.30;99.90;;;;;;5054004;28;20134;-67
2022/12/19 04:59:19;;;;;;;52.25;26.05;;;-1.30;99.90;;;;;;5054339;28;20116;-66
2022/12/19 05:01:45;;;;;;;54.42;27.35;;;-1.30;99.90;;;;;;5053953;28;20040;-68
2022/12/19 05:04:10;;;;;;;54.42;27.05;;;-1.30;99.90;;;;;;5054256;28;20119;-67
2022/12/19 05:06:37;;;;;;;54.75;26.70;;;-1.30;99.90;;;;;;5054137;28;20032;-66
2022/12/19 05:09:03;;;;;;;55.17;27.98;;;-1.40;99.90;;;;;;5053129;28;20035;-67
2022/12/19 05:11:28;;;;;;;59.25;29.65;;;-1.40;99.90;;;;;;5053749;28;20024;-66
2022/12/19 05:13:54;;;;;;;56.53;28.70;;;-1.40;99.90;;;;;;5053710;28;20032;-66
2022/12/19 05:16:19;;;;;;;58.28;28.90;;;-1.50;99.90;;;;;;5054026;28;20568;-67
2022/12/19 05:18:45;;;;;;;64.90;30.73;;;-1.50;99.90;;;;;;5053657;28;20029;-66
2022/12/19 05:21:11;;;;;;;63.08;31.08;;;-1.50;99.90;;;;;;5053980;28;20032;-67
2022/12/19 05:23:37;;;;;;;64.25;30.58;;;-1.50;99.90;;;;;;5053865;28;20481;-67
2022/12/19 05:26:05;;;;;;;60.15;30.75;;;-1.50;99.90;;;;;;5053309;28;20090;-67
2022/12/19 05:28:31;;;;;;;58.33;29.20;;;-1.50;99.90;;;;;;5053761;28;20037;-67
2022/12/19 05:31:12;;;;;;;63.03;29.90;;;-1.50;99.90;;;;;;5053341;28;20025;-67
2022/12/19 05:33:39;;;;;;;65.05;30.05;;;-1.60;99.90;;;;;;5053828;28;20025;-67
2022/12/19 05:36:07;;;;;;;68.45;29.90;;;-1.60;99.90;;;;;;5052878;28;20049;-67
2022/12/19 05:38:33;;;;;;;57.53;28.83;;;-1.60;99.90;;;;;;5053703;28;20039;-67
2022/12/19 05:40:59;;;;;;;64.55;30.65;;;-1.60;99.90;;;;;;5052918;28;20489;-67
2022/12/19 05:43:25;;;;;;;58.55;29.30;;;-1.70;99.90;;;;;;5053430;28;20041;-67
2022/12/19 05:45:50;;;;;;;67.80;31.98;;;-1.70;99.90;;;;;;5053630;28;20029;-67
2022/12/19 05:48:16;;;;;;;58.65;30.80;;;-1.70;99.90;;;;;;5052451;28;20539;-67
2022/12/19 05:50:47;;;;;;;65.40;30.80;;;-1.70;99.90;;;;;;5053594;28;20021;-67
2022/12/19 05:53:12;;;;;;;65.93;30.57;;;-1.70;99.90;;;;;;5053348;28;20029;-67
2022/12/19 05:55:38;;;;;;;60.58;29.73;;;-1.70;99.90;;;;;;5053508;28;20036;-67
2022/12/19 05:58:03;;;;;;;57.85;30.17;;;-1.70;99.90;;;;;;5052804;28;20032;-67
2022/12/19 06:00:29;;;;;;;55.17;29.48;;;-1.80;99.90;;;;;;5052019;28;20036;-67
2022/12/19 06:02:55;;;;;;;61.08;29.42;;;-1.80;99.90;;;;;;5052412;28;20040;-67
2022/12/19 06:05:20;;;;;;;55.85;27.92;;;-1.80;99.90;;;;;;5053515;28;20047;-67
2022/12/19 06:07:46;;;;;;;63.17;30.85;;;-1.80;99.90;;;;;;5052787;28;20461;-67
2022/12/19 06:10:12;;;;;;;67.32;31.08;;;-1.80;99.90;;;;;;5052617;28;20033;-67
2022/12/19 06:12:38;;;;;;;61.05;30.02;;;-1.80;99.90;;;;;;5052917;28;20162;-67
2022/12/19 06:15:03;;;;;;;62.05;28.40;;;-1.90;99.90;;;;;;5052600;28;20021;-67
2022/12/19 06:17:29;;;;;;;59.88;28.15;;;-1.90;99.90;;;;;;5053043;28;20532;-67
2022/12/19 06:19:55;;;;;;;64.35;31.40;;;-1.90;99.90;;;;;;5051945;28;20091;-67
2022/12/19 06:22:20;;;;;;;63.85;30.25;;;-1.90;99.90;;;;;;5052750;28;20036;-67
2022/12/19 06:24:46;;;;;;;59.72;29.75;;;-1.90;99.90;;;;;;5052468;28;20075;-67
2022/12/19 06:27:11;;;;;;;61.50;30.27;;;-1.90;99.90;;;;;;5052620;28;20037;-67
2022/12/19 06:29:37;;;;;;;68.55;29.77;;;-1.90;99.90;;;;;;5052800;28;20025;-67
2022/12/19 06:32:03;;;;;;;66.95;29.27;;;-1.90;99.90;;;;;;5052244;28;20031;-67
2022/12/19 06:34:28;;;;;;;71.03;31.67;;;-2.00;99.90;;;;;;5052811;28;20064;-67
2022/12/19 06:36:54;;;;;;;68.10;31.27;;;-2.00;99.90;;;;;;5052363;28;20505;-68
2022/12/19 06:39:21;;;;;;;61.95;29.20;;;-2.00;99.90;;;;;;5052589;28;20477;-67
2022/12/19 06:44:31;;;;;;;65.05;29.27;;;-1.90;99.90;;;;;;5052019;28;20052;-67
2022/12/19 06:46:56;;;;;;;77.40;32.75;;;-2.00;99.90;;;;;;5050750;28;20025;-67
2022/12/19 06:49:22;;;;;;;64.70;30.27;;;-1.90;99.90;;;;;;5052753;28;20048;-67
2022/12/19 06:51:48;;;;;;;67.13;30.92;;;-1.90;99.90;;;;;;5052300;28;20026;-66
2022/12/19 06:54:14;;;;;;;75.72;32.03;;;-2.00;99.90;;;;;;5051782;28;20025;-66
2022/12/19 06:56:41;;;;;;;66.47;32.13;;;-2.00;99.90;;;;;;5052131;28;20032;-68
2022/12/19 06:59:10;;;;;;;64.72;29.98;;;-1.90;99.90;;;;;;5051587;28;20537;-66
2022/12/19 07:01:50;;;;;;;59.03;28.30;;;-1.90;99.90;;;;;;5052437;28;20102;-67
2022/12/19 07:04:39;;;;;;;62.90;29.88;;;-1.90;99.90;;;;;;5051794;28;20385;-66
2022/12/19 07:07:06;;;;;;;66.68;30.00;;;-1.90;99.90;;;;;;5051912;28;20040;-67
2022/12/19 07:09:33;;;;;;;56.47;27.48;;;-1.90;99.90;;;;;;5051965;28;20108;-66
2022/12/19 07:11:59;;;;;;;64.82;27.25;;;-1.90;99.90;;;;;;5051633;28;20033;-67
2022/12/19 07:14:24;;;;;;;58.17;26.17;;;-1.90;99.90;;;;;;5052436;28;20036;-67
2022/12/19 07:16:51;;;;;;;62.15;26.83;;;-1.90;99.90;;;;;;5051771;28;20106;-67
2022/12/19 07:19:18;;;;;;;60.03;25.15;;;-1.90;99.90;;;;;;5051319;28;20117;-67
2022/12/19 07:21:44;;;;;;;54.22;24.52;;;-1.90;99.90;;;;;;5052032;28;20413;-66
2022/12/19 07:24:10;;;;;;;57.85;25.92;;;-1.90;99.90;;;;;;5051509;28;20017;-66
2022/12/19 07:26:36;;;;;;;52.00;24.15;;;-1.90;99.90;;;;;;5051853;28;20021;-67
2022/12/19 07:29:02;;;;;;;61.10;25.75;;;-1.90;99.90;;;;;;5051878;28;20428;-65
2022/12/19 07:31:28;;;;;;;51.80;24.02;;;-1.90;99.90;;;;;;5052519;28;20025;-68
2022/12/19 07:33:53;;;;;;;61.85;25.80;;;-1.90;99.90;;;;;;5055822;28;20021;-67
2022/12/19 07:36:19;;;;;;;58.33;24.95;;;-1.90;99.90;;;;;;5055628;28;20045;-67
2022/12/19 07:38:45;;;;;;;63.05;25.63;;;-1.90;99.90;;;;;;5055486;28;20108;-67
2022/12/19 07:41:10;;;;;;;57.95;24.88;;;-1.90;99.90;;;;;;5055378;28;20029;-67
2022/12/19 07:43:36;;;;;;;62.28;25.42;;;-1.80;99.90;;;;;;5055470;28;20104;-67
2022/12/19 07:46:01;;;;;;;59.25;25.20;;;-1.80;99.90;;;;;;5054998;28;20021;-68
2022/12/19 07:48:29;;;;;;;59.20;24.55;;;-1.80;99.90;;;;;;5055293;28;20037;-67
2022/12/19 07:50:55;;;;;;;56.25;24.63;;;-1.80;99.90;;;;;;5055621;28;20029;-67
2022/12/19 07:53:20;;;;;;;58.70;24.92;;;-1.70;99.90;;;;;;5053688;28;20028;-67
2022/12/19 07:55:50;;;;;;;57.38;25.00;;;-1.80;99.90;;;;;;5055894;28;20128;-67
2022/12/19 07:58:16;;;;;;;59.08;25.35;;;-1.80;99.90;;;;;;5054598;28;20037;-67
2022/12/19 08:00:41;;;;;;;58.10;26.33;;;-1.70;99.90;;;;;;5055473;28;20033;-68
2022/12/19 08:03:07;;;;;;;61.03;26.02;;;-1.80;99.90;;;;;;5055080;28;20100;-68
2022/12/19 08:05:33;;;;;;;55.65;25.92;;;-1.70;99.90;;;;;;5055182;28;20029;-67
2022/12/19 08:07:59;;;;;;;58.13;24.98;;;-1.80;99.90;;;;;;5055065;28;20071;-69
2022/12/19 08:10:24;;;;;;;54.67;24.70;;;-1.70;99.90;;;;;;5055236;28;20061;-67
2022/12/19 08:12:50;;;;;;;65.53;25.17;;;-1.70;99.90;;;;;;5054995;28;20025;-67
2022/12/19 08:15:16;;;;;;;59.90;25.63;;;-1.70;99.90;;;;;;5054712;28;20466;-67
2022/12/19 08:17:41;;;;;;;59.50;25.05;;;-1.70;99.90;;;;;;5054900;28;20100;-68
2022/12/19 08:20:08;;;;;;;71.38;27.67;;;-1.60;99.90;;;;;;5054706;28;20033;-68
2022/12/19 08:22:34;;;;;;;60.70;25.63;;;-1.60;99.90;;;;;;5055003;28;20035;-68
2022/12/19 08:24:59;;;;;;;67.78;26.98;;;-1.60;99.90;;;;;;5054953;28;20473;-70
2022/12/19 08:27:25;;;;;;;62.90;25.55;;;-1.60;99.90;;;;;;5055394;28;20025;-68
2022/12/19 08:29:51;;;;;;;55.63;24.15;;;-1.50;99.90;;;;;;5054631;28;20474;-68
2022/12/19 08:32:17;;;;;;;59.88;25.05;;;-1.50;99.90;;;;;;5054403;28;20485;-67
2022/12/19 08:34:43;;;;;;;59.38;24.98;;;-1.50;99.90;;;;;;5054792;28;20029;-68
2022/12/19 08:37:09;;;;;;;58.45;25.13;;;-1.50;99.90;;;;;;5054336;28;20128;-66
2022/12/19 08:39:35;;;;;;;57.17;25.67;;;-1.40;99.90;;;;;;5054625;28;20040;-67
2022/12/19 08:42:01;;;;;;;53.70;25.42;;;-1.40;99.90;;;;;;5054187;28;20043;-68
2022/12/19 08:44:27;;;;;;;58.10;25.92;;;-1.40;99.90;;;;;;5052273;28;20057;-67
2022/12/19 08:46:52;;;;;;;57.67;25.85;;;-1.30;99.90;;;;;;5054574;28;20457;-67
2022/12/19 08:49:19;;;;;;;60.97;26.58;;;-1.30;99.90;;;;;;5054122;28;20033;-67
2022/12/19 08:51:45;;;;;;;53.33;23.67;;;-1.30;99.90;;;;;;5054136;28;20025;-67
2022/12/19 08:54:11;;;;;;;55.22;24.63;;;-1.30;99.90;;;;;;5053853;28;20079;-67
2022/12/19 08:56:36;;;;;;;56.40;23.52;;;-1.20;99.90;;;;;;5054366;28;20025;-67
2022/12/19 08:59:02;;;;;;;52.30;23.58;;;-1.20;99.90;;;;;;5053768;28;20074;-69
2022/12/19 09:01:28;;;;;;;57.55;24.65;;;-1.10;99.90;;;;;;5053983;28;20029;-67
2022/12/19 09:03:58;;;;;;;57.63;24.85;;;-1.10;99.90;;;;;;5052900;28;20071;-67
2022/12/19 09:06:23;;;;;;;51.17;23.50;;;-1.10;99.90;;;;;;5054018;28;20021;-67
2022/12/19 09:08:49;;;;;;;54.78;25.35;;;-1.10;99.90;;;;;;5054195;28;20165;-66
2022/12/19 09:11:18;;;;;;;52.15;23.05;;;-1.10;99.90;;;;;;5053625;28;20053;-66
2022/12/19 09:13:44;;;;;;;50.15;23.55;;;-1.10;99.90;;;;;;5054027;28;20024;-66
2022/12/19 09:16:17;;;;;;;49.67;22.52;;;-1.10;99.90;;;;;;5053647;28;20021;-66
2022/12/19 09:18:45;;;;;;;51.40;23.20;;;-1.00;99.90;;;;;;5054192;28;20060;-66
2022/12/19 09:21:12;;;;;;;52.10;23.48;;;-1.00;99.90;;;;;;5053448;28;20481;-66
2022/12/19 09:23:39;;;;;;;46.00;23.10;;;-1.00;99.90;;;;;;5054137;28;20031;-66
2022/12/19 09:26:07;;;;;;;48.80;24.27;;;-1.00;99.90;;;;;;5053246;28;20520;-69
2022/12/19 09:28:34;;;;;;;55.30;23.92;;;-0.90;99.90;;;;;;5054229;28;20084;-66
2022/12/19 09:31:03;;;;;;;61.10;25.83;;;-0.90;99.90;;;;;;5053918;28;20025;-66
2022/12/19 09:33:30;;;;;;;47.42;22.73;;;-0.90;99.90;;;;;;5053712;28;20029;-66
2022/12/19 09:35:56;;;;;;;51.85;22.85;;;-0.90;99.90;;;;;;5053936;28;20075;-66
2022/12/19 09:38:24;;;;;;;52.92;25.27;;;-0.90;99.90;;;;;;5053395;28;20425;-66
2022/12/19 09:41:14;;;;;;;50.15;23.42;;;-0.80;99.90;;;;;;5053629;28;20029;-66
2022/12/19 09:44:03;;;;;;;51.40;23.55;;;-0.80;99.90;;;;;;5053850;28;20032;-66
2022/12/19 09:46:31;;;;;;;53.42;25.25;;;-0.80;99.90;;;;;;5042597;28;20033;-66
2022/12/19 09:49:00;;;;;;;50.80;24.75;;;-0.80;99.90;;;;;;5053411;28;20059;-67
2022/12/19 09:51:39;;;;;;;56.83;24.33;;;-0.80;99.90;;;;;;5053159;28;20504;-67
2022/12/19 09:54:15;;;;;;;51.47;24.73;;;-0.80;99.90;;;;;;5053460;28;20036;-67
2022/12/19 09:56:43;;;;;;;52.58;22.83;;;-0.80;99.90;;;;;;5053556;28;20106;-67
2022/12/19 09:59:28;;;;;;;47.13;23.08;;;-0.80;99.90;;;;;;5050938;28;20037;-67
2022/12/19 10:02:20;;;;;;;53.22;24.67;;;-0.80;99.90;;;;;;5052978;28;20025;-67
2022/12/19 10:04:55;;;;;;;50.88;24.23;;;-0.80;99.90;;;;;;5053214;28;20029;-67
2022/12/19 10:07:21;;;;;;;58.40;23.92;;;-0.70;99.90;;;;;;5052982;28;20053;-67
2022/12/19 10:09:47;;;;;;;54.65;24.13;;;-0.70;99.90;;;;;;5053197;28;20052;-67
2022/12/19 10:12:45;;;;;;;51.22;24.48;;;-0.60;99.90;;;;;;5052747;28;20064;-68
2022/12/19 10:15:24;;;;;;;50.08;23.23;;;-0.60;99.90;;;;;;5029533;28;20035;-67
2022/12/19 10:18:09;;;;;;;49.78;23.40;;;-0.60;99.90;;;;;;5052626;28;20108;-67
2022/12/19 10:20:49;;;;;;;50.22;23.10;;;-0.60;99.90;;;;;;5052695;28;20462;-67
2022/12/19 10:23:44;;;;;;;52.92;23.85;;;-0.60;99.90;;;;;;5052595;28;20339;-66
2022/12/19 10:26:20;;;;;;;50.08;23.77;;;-0.60;99.90;;;;;;5052603;28;20063;-67
2022/12/19 10:29:00;;;;;;;53.72;24.05;;;-0.60;99.90;;;;;;5052477;28;20032;-67
2022/12/19 10:31:57;;;;;;;53.25;24.42;;;-0.50;99.90;;;;;;5052288;28;20024;-67
2022/12/19 10:34:29;;;;;;;57.83;25.17;;;-0.50;99.90;;;;;;5052353;28;20033;-66
2022/12/19 10:37:01;;;;;;;54.63;25.83;;;-0.50;99.90;;;;;;5052728;28;20045;-66
2022/12/19 10:39:35;;;;;;;52.50;25.42;;;-0.50;99.90;;;;;;5050773;28;20033;-67
2022/12/19 10:42:11;;;;;;;54.40;24.75;;;-0.50;99.90;;;;;;5052580;28;20373;-66
2022/12/19 10:44:39;;;;;;;54.78;25.00;;;-0.50;99.90;;;;;;5052280;28;20052;-66
2022/12/19 10:47:09;;;;;;;56.70;24.90;;;-0.50;99.90;;;;;;5051583;28;20136;-67
2022/12/19 10:49:35;;;;;;;59.67;26.77;;;-0.50;99.90;;;;;;5052553;28;20033;-66
2022/12/19 10:52:08;;;;;;;57.05;26.48;;;-0.50;99.90;;;;;;5052291;28;20032;-67
2022/12/19 10:54:38;;;;;;;57.63;24.77;;;-0.50;99.90;;;;;;5052026;28;20040;-66
2022/12/19 10:57:27;;;;;;;54.47;25.67;;;-0.50;99.90;;;;;;5052315;28;20029;-67
2022/12/19 11:00:05;;;;;;;58.88;26.00;;;-0.50;99.90;;;;;;5052162;28;20061;-67
2022/12/19 11:02:36;;;;;;;65.20;27.55;;;-0.50;99.90;;;;;;5051728;28;20048;-66
2022/12/19 11:05:18;;;;;;;59.63;27.17;;;-0.50;99.90;;;;;;5051963;28;20418;-66
2022/12/19 11:08:02;;;;;;;55.67;25.20;;;-0.40;99.90;;;;;;5057978;28;20044;-67
2022/12/19 11:10:40;;;;;;;58.97;25.58;;;-0.40;99.90;;;;;;5058376;28;20029;-67
2022/12/19 11:13:21;;;;;;;59.80;24.52;;;-0.40;99.90;;;;;;5058836;28;20033;-67
2022/12/19 11:15:49;;;;;;;59.10;25.17;;;-0.40;99.90;;;;;;5058792;28;20454;-67
2022/12/19 11:18:15;;;;;;;52.80;24.00;;;-0.40;99.90;;;;;;5058235;28;20309;-68
2022/12/19 11:20:53;;;;;;;51.55;23.83;;;-0.40;99.90;;;;;;5058910;28;20033;-68
2022/12/19 11:23:19;;;;;;;59.08;26.05;;;-0.30;99.90;;;;;;5058240;28;20033;-67
2022/12/19 11:25:54;;;;;;;51.28;24.92;;;-0.30;99.90;;;;;;5058868;28;20047;-67
2022/12/19 11:28:33;;;;;;;61.10;26.48;;;-0.30;99.90;;;;;;5058552;28;20377;-67
2022/12/19 11:31:10;;;;;;;53.22;24.90;;;-0.30;99.90;;;;;;5058571;28;20424;-67
2022/12/19 11:33:36;;;;;;;58.20;25.10;;;-0.30;99.90;;;;;;5058548;28;20124;-66
2022/12/19 11:36:05;;;;;;;58.15;24.60;;;-0.20;99.90;;;;;;5058721;28;20049;-66
2022/12/19 11:38:52;;;;;;;54.55;26.90;;;-0.30;99.90;;;;;;5058605;28;20032;-66
2022/12/19 11:41:32;;;;;;;54.40;24.65;;;-0.30;99.90;;;;;;5059242;28;20082;-66
2022/12/19 11:44:13;;;;;;;57.72;26.30;;;-0.30;99.90;;;;;;5060675;28;20021;-66
2022/12/19 11:46:53;;;;;;;54.40;25.83;;;-0.30;99.90;;;;;;5060616;28;20033;-67
2022/12/19 11:49:32;;;;;;;53.70;25.38;;;-0.30;99.90;;;;;;5059335;28;20025;-67
2022/12/19 11:52:23;;;;;;;56.80;27.42;;;-0.20;99.90;;;;;;5058554;28;20035;-67
2022/12/19 11:55:06;;;;;;;53.00;24.40;;;-0.30;99.90;;;;;;5057930;28;20094;-67
2022/12/19 11:57:32;;;;;;;62.10;26.95;;;-0.30;99.90;;;;;;5058308;28;20104;-67
2022/12/19 11:59:58;;;;;;;59.63;26.88;;;-0.30;99.90;;;;;;5057914;28;20120;-66
2022/12/19 12:03:02;;;;;;;57.70;26.60;;;-0.30;99.90;;;;;;5057986;28;20055;-66
2022/12/19 12:05:33;;;;;;;64.10;27.98;;;-0.30;99.90;;;;;;5045776;28;20041;-66
2022/12/19 12:08:25;;;;;;;63.65;27.45;;;-0.30;99.90;;;;;;5058132;28;20025;-66
2022/12/19 12:11:01;;;;;;;58.33;26.23;;;-0.30;99.90;;;;;;5058179;28;20025;-66
2022/12/19 12:13:49;;;;;;;62.58;27.77;;;-0.30;99.90;;;;;;5057678;28;20025;-66
2022/12/19 12:16:16;;;;;;;55.92;26.40;;;-0.30;99.90;;;;;;5057866;28;20029;-66
2022/12/19 12:19:00;;;;;;;63.70;27.52;;;-0.30;99.90;;;;;;5055747;28;20025;-66
2022/12/19 12:21:36;;;;;;;59.70;26.77;;;-0.30;99.90;;;;;;5053135;28;20112;-67
2022/12/19 12:24:07;;;;;;;60.92;28.17;;;-0.30;99.90;;;;;;5054852;28;20032;-66
2022/12/19 12:26:41;;;;;;;64.97;28.30;;;-0.30;99.90;;;;;;5054328;28;20049;-67
2022/12/19 12:29:24;;;;;;;64.93;26.65;;;-0.30;99.90;;;;;;5055226;28;20043;-66
2022/12/19 12:32:01;;;;;;;63.75;28.83;;;-0.30;99.90;;;;;;5054447;28;20029;-66
2022/12/19 12:34:50;;;;;;;67.13;29.38;;;-0.30;99.90;;;;;;5053999;28;20528;-66
2022/12/19 12:37:28;;;;;;;62.75;29.40;;;-0.30;99.90;;;;;;5053624;28;20041;-65
2022/12/19 12:40:24;;;;;;;66.13;30.05;;;-0.30;99.90;;;;;;5054511;28;20189;-66
2022/12/19 12:42:59;;;;;;;66.65;29.65;;;-0.30;99.90;;;;;;5054630;28;20040;-67
2022/12/19 12:45:40;;;;;;;62.47;27.13;;;-0.30;99.90;;;;;;5054074;28;20029;-66
2022/12/19 12:48:31;;;;;;;66.50;28.23;;;-0.40;99.90;;;;;;5054547;28;20060;-66
2022/12/19 12:50:59;;;;;;;64.18;27.88;;;-0.30;99.90;;;;;;5054257;28;20033;-66